createdAt,value
2022-10-18T00:01:42.737Z,13.65
2022-10-18T00:04:12.760Z,14.52
2022-10-18T00:06:43.624Z,14.40
2022-10-18T00:09:14.003Z,15.88
2022-10-18T00:11:43.948Z,14.77
2022-10-18T00:14:14.131Z,14.80
2022-10-18T00:16:44.125Z,15.32
2022-10-18T00:19:14.221Z,16.75
2022-10-18T00:24:20.496Z,16.38
2022-10-18T00:26:50.845Z,16.70
2022-10-18T00:29:21.029Z,16.25
2022-10-18T00:31:50.975Z,17.92
2022-10-18T00:34:21.036Z,18.15
2022-10-18T00:36:51.250Z,18.00
2022-10-18T00:39:22.003Z,18.40
2022-10-18T00:41:52.598Z,17.88
2022-10-18T00:44:30.309Z,17.67
2022-10-18T00:47:03.860Z,16.63
2022-10-18T00:49:38.761Z,18.33
2022-10-18T00:52:12.044Z,18.47
2022-10-18T00:54:43.395Z,18.95
2022-10-18T00:57:15.430Z,19.08
2022-10-18T00:59:46.007Z,18.77
2022-10-18T01:02:20.103Z,19.58
2022-10-18T01:04:50.761Z,18.60
2022-10-18T01:07:39.326Z,18.58
2022-10-18T01:10:40.125Z,18.63
2022-10-18T01:13:50.108Z,18.38
2022-10-18T01:16:39.856Z,17.85
2022-10-18T01:19:32.221Z,19.17
2022-10-18T01:22:14.399Z,17.95
2022-10-18T01:24:57.000Z,17.80
2022-10-18T01:27:47.008Z,16.58
2022-10-18T01:30:39.828Z,14.57
2022-10-18T01:33:29.980Z,13.43
2022-10-18T01:36:16.551Z,13.25
2022-10-18T01:38:46.665Z,11.63
2022-10-18T01:41:17.791Z,10.55
2022-10-18T01:43:49.908Z,11.30
2022-10-18T01:46:23.116Z,10.90
2022-10-18T01:48:54.559Z,9.85
2022-10-18T01:51:34.317Z,8.93
2022-10-18T01:54:04.571Z,9.15
2022-10-18T01:56:50.381Z,9.27
2022-10-18T01:59:35.640Z,8.77
2022-10-18T02:02:23.268Z,8.77
2022-10-18T02:05:04.453Z,8.48
2022-10-18T02:07:48.983Z,8.65
2022-10-18T02:10:51.227Z,8.13
2022-10-18T02:13:22.664Z,7.03
2022-10-18T02:15:56.726Z,9.23
2022-10-18T02:18:32.433Z,8.88
2022-10-18T02:21:03.347Z,8.43
2022-10-18T02:23:33.775Z,7.35
2022-10-18T02:26:03.979Z,7.93
2022-10-18T02:28:34.359Z,7.50
2022-10-18T02:31:08.729Z,8.20
2022-10-18T02:33:46.951Z,7.75
2022-10-18T02:36:52.542Z,7.75
2022-10-18T02:39:25.107Z,7.97
2022-10-18T02:41:56.434Z,7.25
2022-10-18T02:44:26.739Z,6.72
2022-10-18T02:46:56.798Z,7.03
2022-10-18T02:49:26.912Z,6.78
2022-10-18T02:51:56.980Z,7.40
2022-10-18T02:54:26.966Z,7.65
2022-10-18T02:56:57.059Z,6.88
2022-10-18T02:59:27.570Z,7.68
2022-10-18T03:01:57.822Z,6.95
2022-10-18T03:06:58.680Z,6.20
2022-10-18T03:09:28.800Z,6.13
2022-10-18T03:11:59.358Z,6.43
2022-10-18T03:14:29.862Z,5.55
2022-10-18T03:17:00.137Z,7.70
2022-10-18T03:19:30.377Z,7.53
2022-10-18T03:22:00.357Z,6.00
2022-10-18T03:24:37.139Z,6.45
2022-10-18T03:27:07.386Z,6.68
2022-10-18T03:29:38.292Z,6.45
2022-10-18T03:32:08.582Z,7.28
2022-10-18T03:34:38.576Z,6.63
2022-10-18T03:37:08.631Z,5.82
2022-10-18T03:39:39.052Z,6.28
2022-10-18T03:42:10.016Z,5.05
2022-10-18T03:44:40.102Z,6.47
2022-10-18T03:47:10.104Z,7.30
2022-10-18T03:49:40.082Z,5.97
2022-10-18T03:52:10.201Z,5.97
2022-10-18T03:54:40.624Z,5.60
2022-10-18T03:57:11.350Z,5.45
2022-10-18T03:59:41.591Z,7.05
2022-10-18T04:02:12.244Z,7.82
2022-10-18T04:04:42.509Z,7.38
2022-10-18T04:07:12.784Z,6.63
2022-10-18T04:09:42.715Z,7.00
2022-10-18T04:12:13.361Z,7.57
2022-10-18T04:14:44.486Z,6.85
2022-10-18T04:17:15.375Z,5.63
2022-10-18T04:19:46.563Z,6.40
2022-10-18T04:22:16.962Z,5.38
2022-10-18T04:24:47.036Z,5.00
2022-10-18T04:27:17.919Z,5.25
2022-10-18T04:29:48.166Z,5.15
2022-10-18T04:32:19.163Z,4.18
2022-10-18T04:34:50.093Z,3.72
2022-10-18T04:37:20.719Z,3.53
2022-10-18T04:39:53.492Z,3.28
2022-10-18T04:42:24.796Z,3.58
2022-10-18T04:44:55.201Z,4.45
2022-10-18T04:47:29.393Z,4.50
2022-10-18T04:49:59.824Z,3.60
2022-10-18T04:52:30.662Z,4.63
2022-10-18T04:55:01.277Z,4.35
2022-10-18T04:57:31.888Z,4.35
2022-10-18T05:00:02.291Z,3.97
2022-10-18T05:02:35.416Z,3.58
2022-10-18T05:05:09.190Z,3.92
2022-10-18T05:07:43.109Z,3.85
2022-10-18T05:10:13.180Z,3.78
2022-10-18T05:12:45.028Z,4.07
2022-10-18T05:15:15.688Z,3.67
2022-10-18T05:17:46.054Z,3.85
2022-10-18T05:20:16.076Z,3.47
2022-10-18T05:22:46.107Z,3.90
2022-10-18T05:25:16.716Z,4.00
2022-10-18T05:27:47.835Z,4.10
2022-10-18T05:30:18.087Z,4.03
2022-10-18T05:32:48.015Z,4.30
2022-10-18T05:35:18.075Z,4.43
2022-10-18T05:37:48.023Z,4.13
2022-10-18T05:40:18.207Z,4.68
2022-10-18T05:42:49.547Z,4.55
2022-10-18T05:45:21.916Z,4.55
2022-10-18T05:47:52.046Z,4.93
2022-10-18T05:50:22.000Z,5.53
2022-10-18T05:52:52.538Z,13.13
2022-10-18T05:55:23.843Z,18.80
2022-10-18T05:57:54.197Z,9.07
2022-10-18T06:00:24.575Z,11.60
2022-10-18T06:02:58.207Z,11.35
2022-10-18T06:08:00.115Z,12.32
2022-10-18T06:10:30.217Z,12.18
2022-10-18T06:13:00.153Z,10.98
2022-10-18T06:15:30.221Z,11.65
2022-10-18T06:18:01.492Z,11.25
2022-10-18T06:20:31.778Z,20.77
2022-10-18T06:23:02.066Z,17.85
2022-10-18T06:25:32.219Z,20.48
2022-10-18T06:28:02.678Z,18.88
2022-10-18T06:30:32.928Z,19.23
2022-10-18T06:33:03.165Z,21.83
2022-10-18T06:35:33.341Z,19.67
2022-10-18T06:38:03.283Z,18.77
2022-10-18T06:40:39.116Z,18.42
2022-10-18T06:43:20.684Z,22.83
2022-10-18T06:45:52.157Z,22.02
2022-10-18T06:48:22.580Z,21.85
2022-10-18T06:50:59.471Z,21.25
2022-10-18T06:53:32.556Z,18.85
2022-10-18T06:56:07.458Z,20.00
2022-10-18T06:58:37.738Z,17.20
2022-10-18T07:01:11.951Z,16.35
2022-10-18T07:03:42.071Z,16.77
2022-10-18T07:06:13.618Z,16.75
2022-10-18T07:08:44.821Z,17.50
2022-10-18T07:11:19.657Z,16.63
2022-10-18T07:13:50.050Z,16.08
2022-10-18T07:16:20.792Z,16.23
2022-10-18T07:18:52.065Z,14.88
2022-10-18T07:21:24.824Z,14.90
2022-10-18T07:23:55.771Z,14.98
2022-10-18T07:26:33.558Z,14.27
2022-10-18T07:29:13.596Z,16.20
2022-10-18T07:31:43.772Z,16.10
2022-10-18T07:34:14.589Z,17.90
2022-10-18T07:36:44.896Z,19.23
2022-10-18T07:39:14.944Z,14.38
2022-10-18T07:41:44.932Z,15.60
2022-10-18T07:44:15.981Z,15.70
2022-10-18T07:46:46.804Z,13.50
2022-10-18T07:49:17.277Z,11.60
2022-10-18T07:51:47.562Z,14.95
2022-10-18T07:54:18.007Z,10.55
2022-10-18T07:56:48.387Z,10.45
2022-10-18T07:59:18.922Z,10.93
2022-10-18T08:01:49.912Z,10.57
2022-10-18T08:04:20.104Z,10.40
2022-10-18T08:06:52.327Z,9.30
2022-10-18T08:09:22.420Z,8.90
2022-10-18T08:11:53.271Z,7.40
2022-10-18T08:14:24.266Z,7.00
2022-10-18T08:16:54.714Z,7.15
2022-10-18T08:19:24.665Z,6.38
2022-10-18T08:21:54.619Z,6.70
2022-10-18T08:24:24.706Z,6.60
2022-10-18T08:26:55.556Z,6.05
2022-10-18T08:29:29.312Z,5.88
2022-10-18T08:32:01.881Z,6.63
2022-10-18T08:34:32.007Z,5.68
2022-10-18T08:37:02.639Z,6.18
2022-10-18T08:39:32.709Z,5.90
2022-10-18T08:42:08.348Z,5.57
2022-10-18T08:44:49.850Z,5.05
2022-10-18T08:47:24.821Z,5.28
2022-10-18T08:50:00.707Z,5.03
2022-10-18T08:52:31.341Z,4.30
2022-10-18T08:55:03.373Z,4.35
2022-10-18T08:57:34.307Z,4.25
2022-10-18T09:00:18.507Z,3.63
2022-10-18T09:03:15.546Z,3.80
2022-10-18T09:05:56.590Z,3.42
2022-10-18T09:08:48.402Z,3.28
2022-10-18T09:11:52.737Z,3.47
2022-10-18T09:15:00.295Z,3.03
2022-10-18T09:18:06.199Z,3.55
2022-10-18T09:20:52.138Z,3.30
2022-10-18T09:23:24.168Z,3.60
2022-10-18T09:26:16.185Z,3.30
2022-10-18T09:29:30.376Z,3.35
2022-10-18T09:32:37.403Z,3.42
2022-10-18T09:35:15.890Z,3.35
2022-10-18T09:37:46.165Z,3.38
2022-10-18T09:40:29.737Z,3.63
2022-10-18T09:43:03.281Z,2.83
2022-10-18T09:45:36.466Z,2.67
2022-10-18T09:48:13.993Z,2.90
2022-10-18T09:51:00.228Z,3.58
2022-10-18T09:53:56.937Z,3.35
2022-10-18T09:59:49.726Z,4.97
2022-10-18T10:02:24.359Z,3.72
2022-10-18T10:04:57.727Z,3.90
2022-10-18T10:07:37.825Z,4.57
2022-10-18T10:10:16.058Z,5.10
2022-10-18T10:12:47.238Z,5.65
2022-10-18T10:15:29.549Z,5.65
2022-10-18T10:18:05.324Z,5.95
2022-10-18T10:20:47.189Z,5.80
2022-10-18T10:23:40.147Z,6.03
2022-10-18T10:26:31.254Z,5.45
2022-10-18T10:29:01.554Z,5.47
2022-10-18T10:31:35.239Z,5.60
2022-10-18T10:34:06.217Z,6.30
2022-10-18T10:36:36.538Z,6.68
2022-10-18T10:39:20.203Z,5.88
2022-10-18T10:42:00.526Z,6.57
2022-10-18T10:44:33.630Z,7.20
2022-10-18T10:47:04.283Z,7.47
2022-10-18T10:49:44.451Z,8.05
2022-10-18T10:52:27.429Z,9.35
2022-10-18T10:55:11.040Z,10.80
2022-10-18T10:57:51.621Z,12.02
2022-10-18T11:00:59.280Z,11.93
2022-10-18T11:03:30.141Z,13.82
2022-10-18T11:06:06.804Z,13.90
2022-10-18T11:08:41.997Z,15.50
2022-10-18T11:11:35.581Z,16.83
2022-10-18T11:14:32.104Z,16.45
2022-10-18T11:17:17.008Z,17.00
2022-10-18T11:20:02.814Z,18.83
2022-10-18T11:22:37.889Z,19.77
2022-10-18T11:25:14.532Z,22.50
2022-10-18T11:28:08.284Z,23.40
2022-10-18T11:31:12.430Z,25.98
2022-10-18T11:34:12.117Z,26.52
2022-10-18T11:37:29.119Z,27.88
2022-10-18T11:40:18.813Z,27.35
2022-10-18T11:43:34.419Z,28.48
2022-10-18T11:46:50.626Z,29.02
2022-10-18T11:49:58.189Z,27.95
2022-10-18T11:52:46.844Z,28.00
2022-10-18T11:55:35.977Z,28.60
2022-10-18T11:58:25.945Z,29.95
2022-10-18T12:01:13.367Z,29.33
2022-10-18T12:03:52.981Z,28.52
2022-10-18T12:06:25.724Z,29.23
2022-10-18T12:09:05.980Z,30.35
2022-10-18T12:11:46.894Z,31.48
2022-10-18T12:14:26.746Z,29.20
2022-10-18T12:17:28.093Z,29.60
2022-10-18T12:19:50.172Z,28.58
2022-10-18T12:22:38.276Z,30.98
2022-10-18T12:25:15.746Z,32.10
2022-10-18T12:27:54.090Z,29.42
2022-10-18T12:30:46.565Z,31.17
2022-10-18T12:33:28.567Z,30.27
2022-10-18T12:36:14.566Z,31.88
2022-10-18T12:38:45.380Z,30.20
2022-10-18T12:41:21.784Z,31.27
2022-10-18T12:44:06.197Z,32.28
2022-10-18T12:46:57.141Z,31.48
2022-10-18T12:49:39.199Z,31.80
2022-10-18T12:52:30.026Z,31.27
2022-10-18T12:55:07.298Z,30.52
2022-10-18T12:57:56.024Z,30.88
2022-10-18T13:00:32.434Z,31.60
2022-10-18T13:03:14.114Z,30.80
2022-10-18T13:05:57.618Z,31.27
2022-10-18T13:08:36.403Z,32.15
2022-10-18T13:11:13.988Z,30.90
2022-10-18T13:14:24.134Z,30.60
2022-10-18T13:17:14.873Z,30.48
2022-10-18T13:20:24.556Z,30.52
2022-10-18T13:26:29.681Z,31.23
2022-10-18T13:29:25.169Z,30.35
2022-10-18T13:32:18.315Z,31.90
2022-10-18T13:34:48.388Z,31.48
2022-10-18T13:37:18.337Z,31.50
2022-10-18T13:39:51.350Z,33.22
2022-10-18T13:42:22.037Z,31.23
2022-10-18T13:44:52.325Z,31.33
2022-10-18T13:47:36.759Z,31.02
2022-10-18T13:53:27.939Z,31.80
2022-10-18T13:56:14.661Z,32.20
2022-10-18T13:59:27.799Z,32.17
2022-10-18T14:02:49.885Z,34.40
2022-10-18T14:06:03.077Z,33.13
2022-10-18T14:08:48.573Z,32.80
2022-10-18T14:11:45.383Z,32.88
2022-10-18T14:14:35.469Z,33.22
2022-10-18T14:17:33.665Z,34.13
2022-10-18T14:20:55.335Z,33.75
2022-10-18T14:23:37.513Z,33.40
2022-10-18T14:26:18.335Z,35.15
2022-10-18T14:29:09.197Z,35.25
2022-10-18T14:31:39.300Z,34.97
2022-10-18T14:34:14.259Z,34.25
2022-10-18T14:36:47.426Z,35.30
2022-10-18T14:39:22.630Z,34.10
2022-10-18T14:41:54.478Z,34.83
2022-10-18T14:44:35.987Z,35.70
2022-10-18T14:47:32.005Z,34.78
2022-10-18T14:50:02.471Z,35.78
2022-10-18T14:52:35.410Z,34.50
2022-10-18T14:55:06.321Z,35.90
2022-10-18T14:57:38.954Z,36.20
2022-10-18T15:00:29.246Z,35.25
2022-10-18T15:02:59.364Z,36.85
2022-10-18T15:05:29.899Z,35.65
2022-10-18T15:08:04.086Z,35.15
2022-10-18T15:10:41.309Z,34.17
2022-10-18T15:13:15.483Z,35.47
2022-10-18T15:15:45.959Z,34.33
2022-10-18T15:18:26.885Z,33.50
2022-10-18T15:21:25.377Z,32.90
2022-10-18T15:23:58.650Z,33.40
2022-10-18T15:26:30.836Z,33.30
2022-10-18T15:29:06.121Z,34.20
2022-10-18T15:31:39.709Z,31.77
2022-10-18T15:34:30.160Z,33.15
2022-10-18T15:37:05.952Z,31.75
2022-10-18T15:42:40.452Z,29.73
2022-10-18T15:45:32.038Z,29.98
2022-10-18T15:48:26.409Z,31.13
2022-10-18T15:51:03.111Z,30.23
2022-10-18T15:53:49.965Z,30.90
2022-10-18T15:56:29.933Z,31.35
2022-10-18T15:59:01.099Z,30.42
2022-10-18T16:01:42.118Z,31.45
2022-10-18T16:04:29.576Z,30.45
2022-10-18T16:06:59.903Z,31.20
2022-10-18T16:09:30.913Z,31.27
2022-10-18T16:12:04.010Z,31.30
2022-10-18T16:14:34.322Z,30.63
2022-10-18T16:17:06.118Z,32.20
2022-10-18T16:19:42.629Z,31.05
2022-10-18T16:24:49.216Z,32.10
2022-10-18T16:27:19.428Z,33.08
2022-10-18T16:29:50.699Z,35.03
2022-10-18T16:32:23.731Z,35.17
2022-10-18T16:34:59.610Z,35.50
2022-10-18T16:40:02.200Z,36.25
2022-10-18T16:42:34.195Z,37.90
2022-10-18T16:45:04.519Z,39.30
2022-10-18T16:47:47.101Z,37.13
2022-10-18T16:50:19.084Z,36.33
2022-10-18T16:52:49.659Z,37.30
2022-10-18T16:55:25.999Z,35.15
2022-10-18T16:57:58.304Z,36.10
2022-10-18T17:00:31.393Z,36.40
2022-10-18T17:03:03.855Z,34.45
2022-10-18T17:05:33.947Z,34.05
2022-10-18T17:08:06.017Z,32.90
2022-10-18T17:10:36.257Z,34.13
2022-10-18T17:13:06.230Z,33.28
2022-10-18T17:15:36.333Z,32.53
2022-10-18T17:18:10.178Z,34.22
2022-10-18T17:20:40.354Z,32.80
2022-10-18T17:23:22.930Z,35.13
2022-10-18T17:26:08.532Z,33.13
2022-10-18T17:28:58.816Z,34.03
2022-10-18T17:31:29.843Z,34.22
2022-10-18T17:34:02.708Z,34.22
2022-10-18T17:36:33.463Z,32.92
2022-10-18T17:39:09.613Z,34.60
2022-10-18T17:41:42.817Z,35.20
2022-10-18T17:44:15.859Z,33.40
2022-10-18T17:46:47.454Z,33.45
2022-10-18T17:49:23.994Z,35.83
2022-10-18T17:52:04.524Z,34.08
2022-10-18T17:57:22.679Z,32.92
2022-10-18T17:59:55.868Z,32.25
2022-10-18T18:02:26.118Z,32.15
2022-10-18T18:04:56.790Z,31.88
2022-10-18T18:07:26.983Z,33.15
2022-10-18T18:09:57.448Z,32.53
2022-10-18T18:12:28.166Z,32.83
2022-10-18T18:15:04.329Z,32.40
2022-10-18T18:20:27.654Z,32.40
2022-10-18T18:22:57.768Z,31.52
2022-10-18T18:25:30.852Z,32.65
2022-10-18T18:28:05.136Z,32.88
2022-10-18T18:30:36.826Z,31.00
2022-10-18T18:33:09.665Z,31.02
2022-10-18T18:35:45.667Z,30.90
2022-10-18T18:38:16.157Z,30.98
2022-10-18T18:40:46.340Z,31.13
2022-10-18T18:43:23.492Z,29.55
2022-10-18T18:45:55.427Z,29.08
2022-10-18T18:48:25.818Z,28.00
2022-10-18T18:51:01.944Z,29.17
2022-10-18T18:53:38.044Z,29.70
2022-10-18T18:56:10.034Z,29.17
2022-10-18T18:58:41.180Z,30.67
2022-10-18T19:01:21.972Z,28.77
2022-10-18T19:03:53.803Z,29.10
2022-10-18T19:06:24.505Z,29.13
2022-10-18T19:09:07.168Z,30.15
2022-10-18T19:11:42.762Z,29.30
2022-10-18T19:14:13.957Z,28.88
2022-10-18T19:17:09.861Z,28.80
2022-10-18T19:19:42.066Z,30.40
2022-10-18T19:22:15.385Z,28.23
2022-10-18T19:24:48.941Z,27.77
2022-10-18T19:27:19.158Z,29.80
2022-10-18T19:29:49.964Z,28.73
2022-10-18T19:32:20.788Z,29.05
2022-10-18T19:34:53.927Z,27.88
2022-10-18T19:37:30.086Z,28.30
2022-10-18T19:40:03.491Z,29.50
2022-10-18T19:42:34.305Z,28.65
2022-10-18T19:45:06.409Z,27.90
2022-10-18T19:47:39.440Z,29.27
2022-10-18T19:50:16.274Z,28.20
2022-10-18T19:52:49.869Z,27.92
2022-10-18T19:55:25.956Z,30.95
2022-10-18T19:58:02.098Z,27.65
2022-10-18T20:00:39.294Z,29.48
2022-10-18T20:03:09.654Z,28.77
2022-10-18T20:05:39.680Z,27.88
2022-10-18T20:08:16.017Z,28.48
2022-10-18T20:10:52.452Z,25.85
2022-10-18T20:13:25.249Z,24.48
2022-10-18T20:15:57.896Z,25.58
2022-10-18T20:18:30.247Z,24.75
2022-10-18T20:21:03.260Z,25.08
2022-10-18T20:23:33.857Z,24.42
2022-10-18T20:26:08.653Z,23.45
2022-10-18T20:28:43.151Z,24.40
2022-10-18T20:31:18.919Z,23.33
2022-10-18T20:36:26.119Z,23.30
2022-10-18T20:38:56.599Z,22.30
2022-10-18T20:41:28.493Z,22.85
2022-10-18T20:44:03.213Z,21.95
2022-10-18T20:46:34.745Z,21.48
2022-10-18T20:49:05.595Z,23.90
2022-10-18T20:51:42.388Z,20.95
2022-10-18T20:54:12.872Z,20.33
2022-10-18T20:56:43.022Z,18.95
2022-10-18T20:59:13.994Z,19.40
2022-10-18T21:01:46.484Z,19.83
2022-10-18T21:04:19.586Z,18.95
2022-10-18T21:06:49.849Z,19.40
2022-10-18T21:09:24.171Z,17.15
2022-10-18T21:12:01.800Z,18.83
2022-10-18T21:14:32.148Z,17.63
2022-10-18T21:17:02.080Z,18.35
2022-10-18T21:19:37.862Z,17.67
2022-10-18T21:22:07.927Z,18.20
2022-10-18T21:24:37.935Z,17.17
2022-10-18T21:27:07.937Z,16.98
2022-10-18T21:29:37.866Z,17.42
2022-10-18T21:32:08.033Z,16.48
2022-10-18T21:34:38.139Z,17.67
2022-10-18T21:37:08.238Z,16.90
2022-10-18T21:39:38.452Z,15.65
2022-10-18T21:42:10.716Z,15.93
2022-10-18T21:44:41.027Z,16.05
2022-10-18T21:47:11.382Z,16.48
2022-10-18T21:49:41.353Z,15.63
2022-10-18T21:52:14.287Z,16.25
2022-10-18T21:54:50.122Z,16.08
2022-10-18T21:57:26.160Z,15.02
2022-10-18T21:59:56.427Z,16.40
2022-10-18T22:02:26.445Z,15.15
2022-10-18T22:04:56.414Z,15.35
2022-10-18T22:07:28.074Z,15.00
2022-10-18T22:10:10.961Z,14.88
2022-10-18T22:12:41.180Z,15.32
2022-10-18T22:15:17.638Z,15.07
2022-10-18T22:17:53.576Z,15.40
2022-10-18T22:22:55.242Z,15.90
2022-10-18T22:25:26.632Z,14.43
2022-10-18T22:27:56.632Z,15.23
2022-10-18T22:30:26.625Z,15.15
2022-10-18T22:32:56.650Z,13.15
2022-10-18T22:35:32.647Z,14.60
2022-10-18T22:38:05.849Z,15.15
2022-10-18T22:40:36.104Z,14.75
2022-10-18T22:43:09.893Z,15.10
2022-10-18T22:45:41.287Z,14.13
2022-10-18T22:48:11.479Z,14.50
2022-10-18T22:50:41.436Z,14.95
2022-10-18T22:53:11.657Z,14.20
2022-10-18T22:55:41.702Z,14.60
2022-10-18T22:58:17.857Z,15.15
2022-10-18T23:00:48.406Z,14.82
2022-10-18T23:03:19.260Z,15.13
2022-10-18T23:05:50.783Z,14.25
2022-10-18T23:08:20.969Z,14.20
2022-10-18T23:10:58.225Z,14.18
2022-10-18T23:13:32.306Z,15.13
2022-10-18T23:16:04.832Z,15.25
2022-10-18T23:18:35.386Z,14.57
2022-10-18T23:21:10.176Z,15.80
2022-10-18T23:23:41.372Z,14.33
2022-10-18T23:26:15.006Z,14.38
2022-10-18T23:28:46.706Z,15.38
2022-10-18T23:31:21.727Z,14.85
2022-10-18T23:33:53.171Z,14.93
2022-10-18T23:36:29.917Z,15.00
2022-10-18T23:39:00.195Z,15.35
2022-10-18T23:41:30.688Z,15.63
2022-10-18T23:44:01.275Z,16.45
2022-10-18T23:46:31.815Z,16.63
2022-10-18T23:49:02.117Z,17.05
2022-10-18T23:51:32.664Z,15.02
2022-10-18T23:54:02.757Z,15.55
2022-10-18T23:56:32.670Z,14.82
2022-10-18T23:59:02.782Z,15.27
